createdAt,value
2019-04-20T00:00:10.924Z,4.90
2019-04-20T00:02:39.899Z,5.33
2019-04-20T00:05:09.386Z,5.22
2019-04-20T00:07:37.904Z,4.85
2019-04-20T00:10:10.952Z,5.20
2019-04-20T00:12:53.390Z,4.70
2019-04-20T00:15:08.936Z,5.00
2019-04-20T00:17:41.208Z,5.20
2019-04-20T00:20:15.554Z,4.92
2019-04-20T00:22:56.996Z,4.92
2019-04-20T00:25:42.013Z,5.05
2019-04-20T00:28:27.211Z,4.70
2019-04-20T00:30:53.380Z,5.00
2019-04-20T00:33:25.783Z,5.03
2019-04-20T00:35:38.262Z,4.90
2019-04-20T00:38:07.797Z,5.00
2019-04-20T00:40:37.304Z,5.47
2019-04-20T00:43:06.682Z,5.35
2019-04-20T00:45:40.094Z,4.90
2019-04-20T00:48:19.053Z,4.95
2019-04-20T00:50:49.137Z,5.00
2019-04-20T00:53:17.062Z,4.50
2019-04-20T00:55:36.153Z,5.22
2019-04-20T00:58:15.332Z,4.78
2019-04-20T01:01:00.170Z,4.75
2019-04-20T01:03:23.281Z,4.78
2019-04-20T01:05:58.241Z,5.20
2019-04-20T01:08:21.310Z,4.70
2019-04-20T01:10:54.169Z,4.85
2019-04-20T01:13:24.828Z,4.78
2019-04-20T01:16:01.001Z,4.62
2019-04-20T01:18:22.220Z,4.97
2019-04-20T01:20:51.452Z,5.22
2019-04-20T01:23:24.333Z,5.03
2019-04-20T01:25:58.271Z,5.10
2019-04-20T01:28:39.733Z,4.90
2019-04-20T01:31:06.204Z,4.87
2019-04-20T01:33:32.955Z,5.15
2019-04-20T01:36:08.743Z,4.75
2019-04-20T01:38:39.856Z,5.25
2019-04-20T01:40:55.046Z,5.20
2019-04-20T01:43:24.771Z,5.00
2019-04-20T01:46:01.330Z,4.92
2019-04-20T01:48:30.184Z,5.08
2019-04-20T01:51:02.094Z,5.15
2019-04-20T01:53:50.376Z,5.20
2019-04-20T01:56:24.475Z,5.03
2019-04-20T01:58:58.271Z,5.55
2019-04-20T02:01:25.090Z,5.28
2019-04-20T02:03:57.136Z,5.35
2019-04-20T02:06:28.631Z,4.97
2019-04-20T02:09:03.380Z,5.40
2019-04-20T02:11:34.276Z,5.22
2019-04-20T02:14:02.430Z,5.60
2019-04-20T02:16:35.723Z,4.85
2019-04-20T02:19:13.814Z,5.37
2019-04-20T02:21:47.584Z,5.33
2019-04-20T02:24:02.678Z,4.95
2019-04-20T02:26:30.120Z,5.05
2019-04-20T02:29:24.568Z,5.40
2019-04-20T02:37:17.326Z,5.55
2019-04-20T02:47:19.513Z,5.37
2019-04-20T02:49:40.309Z,5.15
2019-04-20T02:52:38.557Z,5.40
2019-04-20T02:55:09.182Z,5.37
2019-04-20T03:00:05.448Z,5.33
2019-04-20T03:02:18.182Z,5.83
2019-04-20T03:04:42.267Z,5.50
2019-04-20T03:07:15.650Z,5.92
2019-04-20T03:09:51.098Z,5.92
2019-04-20T03:12:30.404Z,5.58
2019-04-20T03:14:50.288Z,5.22
2019-04-20T03:17:27.102Z,5.70
2019-04-20T03:19:47.589Z,5.87
2019-04-20T03:22:47.914Z,5.78
2019-04-20T03:25:02.035Z,6.12
2019-04-20T03:27:24.851Z,5.30
2019-04-20T03:30:03.737Z,5.70
2019-04-20T03:33:21.165Z,5.70
2019-04-20T03:35:28.303Z,5.75
2019-04-20T03:38:00.175Z,5.53
2019-04-20T03:40:22.860Z,5.80
2019-04-20T03:42:37.068Z,5.50
2019-04-20T03:45:13.150Z,5.78
2019-04-20T03:47:52.868Z,6.00
2019-04-20T03:50:31.034Z,5.62
2019-04-20T03:53:08.385Z,6.17
2019-04-20T03:58:46.034Z,5.83
2019-04-20T04:01:33.879Z,5.50
2019-04-20T04:04:03.579Z,5.42
2019-04-20T04:06:23.600Z,5.67
2019-04-20T04:08:55.883Z,5.58
2019-04-20T04:11:27.554Z,6.15
2019-04-20T04:13:41.917Z,6.10
2019-04-20T04:16:13.720Z,5.58
2019-04-20T04:18:44.708Z,6.25
2019-04-20T04:21:18.421Z,6.03
2019-04-20T04:23:58.821Z,6.20
2019-04-20T04:26:32.201Z,6.37
2019-04-20T04:29:00.338Z,6.67
2019-04-20T04:31:33.618Z,6.50
2019-04-20T04:34:15.738Z,6.03
2019-04-20T04:36:29.234Z,5.85
2019-04-20T04:39:03.602Z,6.83
2019-04-20T04:41:35.456Z,6.12
2019-04-20T04:44:00.423Z,6.72
2019-04-20T04:46:25.101Z,6.78
2019-04-20T04:49:03.931Z,6.53
2019-04-20T04:51:29.482Z,6.08
2019-04-20T04:54:01.985Z,6.70
2019-04-20T04:56:26.813Z,6.12
2019-04-20T04:58:54.310Z,6.05
2019-04-20T05:01:28.472Z,6.45
2019-04-20T05:04:24.829Z,6.55
2019-04-20T05:06:37.755Z,6.37
2019-04-20T05:09:00.130Z,6.45
2019-04-20T05:11:25.832Z,6.58
2019-04-20T05:14:00.542Z,6.40
2019-04-20T05:16:55.207Z,7.08
2019-04-20T05:19:29.596Z,7.17
2019-04-20T05:21:56.410Z,7.20
2019-04-20T05:24:33.768Z,6.45
2019-04-20T05:27:17.731Z,6.80
2019-04-20T05:29:25.447Z,7.00
2019-04-20T05:31:58.087Z,7.10
2019-04-20T05:34:45.211Z,7.10
2019-04-20T05:37:25.797Z,7.70
2019-04-20T05:39:44.447Z,6.92
2019-04-20T05:42:16.443Z,6.92
2019-04-20T05:44:48.617Z,6.58
2019-04-20T05:47:12.291Z,6.67
2019-04-20T05:49:41.515Z,7.58
2019-04-20T05:52:24.037Z,7.00
2019-04-20T05:54:46.052Z,6.78
2019-04-20T05:57:21.105Z,7.20
2019-04-20T05:59:54.293Z,7.15
2019-04-20T06:02:15.964Z,6.62
2019-04-20T06:07:16.800Z,6.35
2019-04-20T06:09:51.805Z,6.10
2019-04-20T06:12:19.807Z,6.90
2019-04-20T06:14:49.750Z,6.72
2019-04-20T06:17:32.053Z,6.70
2019-04-20T06:20:05.250Z,6.42
2019-04-20T06:22:37.917Z,6.75
2019-04-20T06:25:31.618Z,7.12
2019-04-20T06:27:48.918Z,6.90
2019-04-20T06:30:05.905Z,6.50
2019-04-20T06:33:33.704Z,6.85
2019-04-20T06:38:36.069Z,6.70
2019-04-20T06:41:03.523Z,6.35
2019-04-20T06:43:26.761Z,6.83
2019-04-20T06:46:01.052Z,6.67
2019-04-20T06:48:32.016Z,5.90
2019-04-20T06:50:49.502Z,6.72
2019-04-20T06:53:32.534Z,6.60
2019-04-20T06:56:06.842Z,7.28
2019-04-20T06:58:46.052Z,6.47
2019-04-20T07:01:03.878Z,6.80
2019-04-20T07:03:45.036Z,6.53
2019-04-20T07:06:23.257Z,6.80
2019-04-20T07:08:49.861Z,6.22
2019-04-20T07:11:10.772Z,5.87
2019-04-20T07:13:27.682Z,5.80
2019-04-20T07:16:06.075Z,6.05
2019-04-20T07:18:43.508Z,6.17
2019-04-20T07:24:05.056Z,5.75
2019-04-20T07:26:41.805Z,5.67
2019-04-20T07:29:08.738Z,6.20
2019-04-20T07:31:31.969Z,5.30
2019-04-20T07:34:07.434Z,5.90
2019-04-20T07:36:40.257Z,5.65
2019-04-20T07:39:07.185Z,5.75
2019-04-20T07:41:41.906Z,5.67
2019-04-20T07:44:10.590Z,6.10
2019-04-20T07:46:47.072Z,5.83
2019-04-20T07:49:10.319Z,8.65
2019-04-20T07:51:21.055Z,5.75
2019-04-20T07:54:10.530Z,6.40
2019-04-20T07:56:39.362Z,6.25
2019-04-20T07:58:50.025Z,6.40
2019-04-20T08:01:45.241Z,6.45
2019-04-20T08:04:13.566Z,5.83
2019-04-20T08:06:32.121Z,6.20
2019-04-20T08:09:08.306Z,7.25
2019-04-20T08:11:50.108Z,6.90
2019-04-20T08:14:19.258Z,6.30
2019-04-20T08:19:12.865Z,7.62
2019-04-20T08:21:47.500Z,6.25
2019-04-20T08:24:13.189Z,6.78
2019-04-20T08:26:30.988Z,6.75
2019-04-20T08:29:20.603Z,6.58
2019-04-20T08:32:03.136Z,6.65
2019-04-20T08:34:35.097Z,6.75
2019-04-20T08:37:01.301Z,6.78
2019-04-20T08:39:45.423Z,6.10
2019-04-20T08:42:05.843Z,6.85
2019-04-20T08:49:35.463Z,6.87
2019-04-20T08:52:19.948Z,6.37
2019-04-20T08:54:30.990Z,6.55
2019-04-20T08:56:51.136Z,6.72
2019-04-20T08:59:14.928Z,7.15
2019-04-20T09:01:44.633Z,6.53
2019-04-20T09:04:19.919Z,7.22
2019-04-20T09:07:00.113Z,6.92
2019-04-20T09:09:44.262Z,7.62
2019-04-20T09:12:05.311Z,7.42
2019-04-20T09:14:18.630Z,6.72
2019-04-20T09:16:54.531Z,6.97
2019-04-20T09:19:32.732Z,7.67
2019-04-20T09:22:09.823Z,7.05
2019-04-20T09:24:49.052Z,6.95
2019-04-20T09:27:10.339Z,6.62
2019-04-20T09:29:38.357Z,6.75
2019-04-20T09:32:16.803Z,6.67
2019-04-20T09:34:51.326Z,6.83
2019-04-20T09:37:25.962Z,6.40
2019-04-20T09:40:02.368Z,7.22
2019-04-20T09:42:25.264Z,5.97
2019-04-20T09:44:57.549Z,6.15
2019-04-20T09:47:32.802Z,5.58
2019-04-20T09:50:03.562Z,6.58
2019-04-20T09:52:45.735Z,6.12
2019-04-20T09:55:06.838Z,5.85
2019-04-20T09:57:48.223Z,5.80
2019-04-20T10:00:11.805Z,5.60
2019-04-20T10:02:30.438Z,5.95
2019-04-20T10:04:57.733Z,5.53
2019-04-20T10:07:32.512Z,7.17
2019-04-20T10:09:57.769Z,6.12
2019-04-20T10:12:26.562Z,6.17
2019-04-20T10:14:57.597Z,6.37
2019-04-20T10:17:27.168Z,6.10
2019-04-20T10:19:55.723Z,5.97
2019-04-20T10:22:24.582Z,5.75
2019-04-20T10:24:54.340Z,6.08
2019-04-20T10:27:24.293Z,5.62
2019-04-20T10:29:53.557Z,5.92
2019-04-20T10:32:31.108Z,5.60
2019-04-20T10:34:52.831Z,6.10
2019-04-20T10:37:23.864Z,6.10
2019-04-20T10:39:52.657Z,5.10
2019-04-20T10:42:21.227Z,5.58
2019-04-20T10:44:52.309Z,5.40
2019-04-20T10:47:21.127Z,5.47
2019-04-20T10:49:49.665Z,5.30
2019-04-20T10:52:21.299Z,5.47
2019-04-20T10:54:50.389Z,5.55
2019-04-20T10:57:19.509Z,5.30
2019-04-20T10:59:48.126Z,5.45
2019-04-20T11:02:16.710Z,5.92
2019-04-20T11:04:46.425Z,5.55
2019-04-20T11:07:15.077Z,6.42
2019-04-20T11:09:44.742Z,5.22
2019-04-20T11:12:14.569Z,5.58
2019-04-20T11:14:45.483Z,6.20
2019-04-20T11:17:14.150Z,5.97
2019-04-20T11:19:43.354Z,6.20
2019-04-20T11:22:12.531Z,5.72
2019-04-20T11:24:41.284Z,6.00
2019-04-20T11:27:10.031Z,5.30
2019-04-20T11:29:38.491Z,6.60
2019-04-20T11:32:07.325Z,6.25
2019-04-20T11:34:56.486Z,5.72
2019-04-20T11:37:25.267Z,6.17
2019-04-20T11:39:54.857Z,6.42
2019-04-20T11:42:23.601Z,6.08
2019-04-20T11:44:52.889Z,5.47
2019-04-20T11:47:21.800Z,5.40
2019-04-20T11:49:51.337Z,5.17
2019-04-20T11:52:21.991Z,5.70
2019-04-20T11:54:50.495Z,5.90
2019-04-20T11:57:19.586Z,6.22
2019-04-20T11:59:48.420Z,6.08
2019-04-20T12:02:29.580Z,6.37
2019-04-20T12:05:09.043Z,5.72
2019-04-20T12:07:24.885Z,5.90
2019-04-20T12:09:53.594Z,5.83
2019-04-20T12:12:31.173Z,6.00
2019-04-20T12:14:52.599Z,5.45
2019-04-20T12:17:21.810Z,5.50
2019-04-20T12:19:50.347Z,5.92
2019-04-20T12:22:18.899Z,6.08
2019-04-20T12:24:47.887Z,5.15
2019-04-20T12:27:16.739Z,5.20
2019-04-20T12:29:45.738Z,5.50
2019-04-20T12:32:14.686Z,6.03
2019-04-20T12:34:43.407Z,5.85
2019-04-20T12:37:13.781Z,5.90
2019-04-20T12:39:42.886Z,5.60
2019-04-20T12:42:12.870Z,5.97
2019-04-20T12:44:41.866Z,5.45
2019-04-20T12:47:10.422Z,5.87
2019-04-20T12:49:39.157Z,5.55
2019-04-20T12:52:08.457Z,6.00
2019-04-20T12:54:39.975Z,5.35
2019-04-20T12:57:08.818Z,5.87
2019-04-20T12:59:37.468Z,5.60
2019-04-20T13:02:07.107Z,5.42
2019-04-20T13:04:35.757Z,5.65
2019-04-20T13:07:04.166Z,5.42
2019-04-20T13:09:36.740Z,5.28
2019-04-20T13:12:28.599Z,6.65
2019-04-20T13:15:28.841Z,5.70
2019-04-20T13:17:58.924Z,5.00
2019-04-20T13:20:28.058Z,6.10
2019-04-20T13:22:57.208Z,5.70
2019-04-20T13:25:26.296Z,5.53
2019-04-20T13:28:03.210Z,5.87
2019-04-20T13:30:32.376Z,5.70
2019-04-20T13:33:01.714Z,5.65
2019-04-20T13:35:30.398Z,5.22
2019-04-20T13:38:00.261Z,5.70
2019-04-20T13:40:31.008Z,5.35
2019-04-20T13:43:01.717Z,5.67
2019-04-20T13:45:31.007Z,5.95
2019-04-20T13:48:01.065Z,6.12
2019-04-20T13:50:29.899Z,5.67
2019-04-20T13:52:58.625Z,6.10
2019-04-20T13:55:28.407Z,5.72
2019-04-20T13:58:02.391Z,5.40
2019-04-20T14:00:54.100Z,5.78
2019-04-20T14:03:24.916Z,5.95
2019-04-20T14:05:53.607Z,5.83
2019-04-20T14:08:25.343Z,5.70
2019-04-20T14:10:53.890Z,5.45
2019-04-20T14:13:24.045Z,5.75
2019-04-20T14:15:53.412Z,6.03
2019-04-20T14:18:22.858Z,5.58
2019-04-20T14:20:52.129Z,6.42
2019-04-20T14:23:21.169Z,6.55
2019-04-20T14:25:51.090Z,5.30
2019-04-20T14:28:20.893Z,5.80
2019-04-20T14:30:49.958Z,5.53
2019-04-20T14:33:18.948Z,5.50
2019-04-20T14:35:48.388Z,5.50
2019-04-20T14:38:17.650Z,5.33
2019-04-20T14:40:46.494Z,5.17
2019-04-20T14:43:17.200Z,5.90
2019-04-20T14:45:46.963Z,6.03
2019-04-20T14:48:16.821Z,5.70
2019-04-20T14:50:45.642Z,5.70
2019-04-20T14:53:15.613Z,5.60
2019-04-20T14:55:44.393Z,6.15
2019-04-20T14:58:37.581Z,5.30
2019-04-20T15:01:08.916Z,5.60
2019-04-20T15:03:40.505Z,6.40
2019-04-20T15:06:09.721Z,5.85
2019-04-20T15:08:38.692Z,5.75
2019-04-20T15:11:07.435Z,5.90
2019-04-20T15:13:36.171Z,5.22
2019-04-20T15:16:04.798Z,5.37
2019-04-20T15:18:51.816Z,4.87
2019-04-20T15:21:21.778Z,5.47
2019-04-20T15:23:51.235Z,5.55
2019-04-20T15:26:20.442Z,5.47
2019-04-20T15:28:50.386Z,5.22
2019-04-20T15:31:20.337Z,6.08
2019-04-20T15:33:49.006Z,5.80
2019-04-20T15:36:18.043Z,5.80
2019-04-20T15:38:47.423Z,5.62
2019-04-20T15:41:18.163Z,5.30
2019-04-20T15:43:46.972Z,5.53
2019-04-20T15:46:15.532Z,5.03
2019-04-20T15:48:44.216Z,5.37
2019-04-20T15:51:14.027Z,5.22
2019-04-20T15:53:43.909Z,5.20
2019-04-20T15:56:12.444Z,5.10
2019-04-20T15:58:40.927Z,4.83
2019-04-20T16:01:10.421Z,5.00
2019-04-20T16:03:48.122Z,5.20
2019-04-20T16:06:17.089Z,5.12
2019-04-20T16:08:48.270Z,5.20
2019-04-20T16:11:19.350Z,5.30
2019-04-20T16:13:51.969Z,5.80
2019-04-20T16:16:19.601Z,5.50
2019-04-20T16:18:48.551Z,5.22
2019-04-20T16:21:22.398Z,5.78
2019-04-20T16:23:52.587Z,5.33
2019-04-20T16:26:25.885Z,5.22
2019-04-20T16:28:55.516Z,4.70
2019-04-20T16:31:24.559Z,5.45
2019-04-20T16:33:56.460Z,4.95
2019-04-20T16:36:23.666Z,4.50
2019-04-20T16:38:53.558Z,4.50
2019-04-20T16:41:22.251Z,4.95
2019-04-20T16:43:51.635Z,4.53
2019-04-20T16:46:23.893Z,4.50
2019-04-20T16:48:50.677Z,5.05
2019-04-20T16:51:19.264Z,5.03
2019-04-20T16:53:47.928Z,4.85
2019-04-20T16:56:18.900Z,5.05
2019-04-20T16:58:48.197Z,4.42
2019-04-20T17:01:17.313Z,4.45
2019-04-20T17:03:54.645Z,5.10
2019-04-20T17:06:16.182Z,4.90
2019-04-20T17:08:46.037Z,6.17
2019-04-20T17:11:16.040Z,10.40
2019-04-20T17:13:49.678Z,4.92
2019-04-20T17:16:15.611Z,4.83
2019-04-20T17:18:47.908Z,5.28
2019-04-20T17:21:25.802Z,4.35
2019-04-20T17:23:53.211Z,4.20
2019-04-20T17:26:39.059Z,5.25
2019-04-20T17:29:10.616Z,4.62
2019-04-20T17:31:53.550Z,5.03
2019-04-20T17:34:41.416Z,4.03
2019-04-20T17:36:52.771Z,5.12
2019-04-20T17:39:33.920Z,4.55
2019-04-20T17:42:07.599Z,4.55
2019-04-20T17:44:35.697Z,4.28
2019-04-20T17:47:04.178Z,4.03
2019-04-20T17:49:34.278Z,3.90
2019-04-20T17:52:18.907Z,4.20
2019-04-20T17:54:37.774Z,3.92
2019-04-20T17:57:09.090Z,4.55
2019-04-20T17:59:40.026Z,4.25
2019-04-20T18:02:21.723Z,4.25
2019-04-20T18:07:46.315Z,12.45
2019-04-20T18:10:18.992Z,4.55
2019-04-20T18:12:38.626Z,4.10
2019-04-20T18:15:21.082Z,4.20
2019-04-20T18:17:56.099Z,4.00
2019-04-20T18:20:12.891Z,4.03
2019-04-20T18:22:45.592Z,3.98
2019-04-20T18:25:29.914Z,4.00
2019-04-20T18:27:59.922Z,3.87
2019-04-20T18:30:39.159Z,4.20
2019-04-20T18:32:58.924Z,4.55
2019-04-20T18:35:33.741Z,4.47
2019-04-20T18:38:01.685Z,3.95
2019-04-20T18:40:38.563Z,4.45
2019-04-20T18:43:04.936Z,4.08
2019-04-20T18:45:46.777Z,4.30
2019-04-20T18:48:18.397Z,3.83
2019-04-20T18:50:38.021Z,4.28
2019-04-20T18:53:00.382Z,5.92
2019-04-20T18:55:40.707Z,5.22
2019-04-20T18:57:59.422Z,4.83
2019-04-20T19:00:32.338Z,4.72
2019-04-20T19:03:09.586Z,4.60
2019-04-20T19:05:29.593Z,4.40
2019-04-20T19:08:03.348Z,4.28
2019-04-20T19:10:32.834Z,4.33
2019-04-20T19:13:08.496Z,4.55
2019-04-20T19:16:00.241Z,4.75
2019-04-20T19:18:49.111Z,4.42
2019-04-20T19:21:09.217Z,4.83
2019-04-20T19:23:48.552Z,4.70
2019-04-20T19:26:13.778Z,5.03
2019-04-20T19:28:45.258Z,4.35
2019-04-20T19:31:25.254Z,5.03
2019-04-20T19:34:04.621Z,5.25
2019-04-20T19:36:20.094Z,5.00
2019-04-20T19:38:52.304Z,5.35
2019-04-20T19:41:26.376Z,4.80
2019-04-20T19:43:54.138Z,5.00
2019-04-20T19:46:44.412Z,5.65
2019-04-20T19:48:53.889Z,6.00
2019-04-20T19:51:34.019Z,5.37
2019-04-20T19:54:09.504Z,5.58
2019-04-20T19:56:34.114Z,5.42
2019-04-20T19:58:58.996Z,5.05
2019-04-20T20:01:13.516Z,5.67
2019-04-20T20:03:42.181Z,5.33
2019-04-20T20:06:18.471Z,5.35
2019-04-20T20:08:55.209Z,5.28
2019-04-20T20:11:21.223Z,5.80
2019-04-20T20:13:49.662Z,5.97
2019-04-20T20:16:25.081Z,5.87
2019-04-20T20:18:57.493Z,5.75
2019-04-20T20:21:27.299Z,4.90
2019-04-20T20:23:45.932Z,6.60
2019-04-20T20:26:23.118Z,6.08
2019-04-20T20:28:50.695Z,5.83
2019-04-20T20:31:23.316Z,6.55
2019-04-20T20:33:58.130Z,6.65
2019-04-20T20:36:21.090Z,10.03
2019-04-20T20:38:51.729Z,9.20
2019-04-20T20:41:23.608Z,5.92
2019-04-20T20:43:56.306Z,6.67
2019-04-20T20:46:27.269Z,6.60
2019-04-20T20:49:16.179Z,6.75
2019-04-20T20:51:44.272Z,6.58
2019-04-20T20:53:57.891Z,6.78
2019-04-20T20:56:24.427Z,7.05
2019-04-20T20:58:59.275Z,6.72
2019-04-20T21:01:24.911Z,6.83
2019-04-20T21:03:51.033Z,6.35
2019-04-20T21:06:20.114Z,6.58
2019-04-20T21:08:52.351Z,7.03
2019-04-20T21:11:23.739Z,6.25
2019-04-20T21:13:51.850Z,6.80
2019-04-20T21:16:23.906Z,7.08
2019-04-20T21:19:03.870Z,6.92
2019-04-20T21:21:36.058Z,6.83
2019-04-20T21:23:59.761Z,7.75
2019-04-20T21:26:29.592Z,6.72
2019-04-20T21:28:52.634Z,7.03
2019-04-20T21:31:24.282Z,6.22
2019-04-20T21:33:53.153Z,6.92
2019-04-20T21:36:26.246Z,6.78
2019-04-20T21:38:52.127Z,6.78
2019-04-20T21:41:22.562Z,6.58
2019-04-20T21:43:52.316Z,7.03
2019-04-20T21:46:20.898Z,7.92
2019-04-20T21:49:04.309Z,7.37
2019-04-20T21:51:34.310Z,9.25
2019-04-20T21:53:49.783Z,7.60
2019-04-20T21:56:19.685Z,7.60
2019-04-20T21:58:54.581Z,7.25
2019-04-20T22:01:29.802Z,6.60
2019-04-20T22:03:50.273Z,6.60
2019-04-20T22:06:20.060Z,7.10
2019-04-20T22:08:54.466Z,7.37
2019-04-20T22:11:19.988Z,6.95
2019-04-20T22:13:49.989Z,6.87
2019-04-20T22:16:21.930Z,7.62
2019-04-20T22:18:58.252Z,7.40
2019-04-20T22:21:26.448Z,6.90
2019-04-20T22:24:04.958Z,7.20
2019-04-20T22:26:29.644Z,6.62
2019-04-20T22:28:50.185Z,7.08
2019-04-20T22:31:20.230Z,7.53
2019-04-20T22:33:49.256Z,7.17
2019-04-20T22:36:20.201Z,7.20
2019-04-20T22:39:09.645Z,7.05
2019-04-20T22:41:47.962Z,7.17
2019-04-20T22:44:15.136Z,7.17
2019-04-20T22:46:43.788Z,7.35
2019-04-20T22:49:26.515Z,7.55
2019-04-20T22:51:53.214Z,7.50
2019-04-20T22:54:29.932Z,6.90
2019-04-20T22:56:54.839Z,7.40
2019-04-20T22:59:18.481Z,7.53
2019-04-20T23:01:48.491Z,7.30
2019-04-20T23:04:14.881Z,7.87
2019-04-20T23:06:47.928Z,7.58
2019-04-20T23:09:14.891Z,6.97
2019-04-20T23:11:45.152Z,7.85
2019-04-20T23:14:14.323Z,7.08
2019-04-20T23:16:48.653Z,7.55
2019-04-20T23:19:14.194Z,7.50
2019-04-20T23:21:48.583Z,7.30
2019-04-20T23:24:14.899Z,7.30
2019-04-20T23:26:45.578Z,7.17
2019-04-20T23:29:13.492Z,7.67
2019-04-20T23:31:50.536Z,6.95
2019-04-20T23:34:16.562Z,7.22
2019-04-20T23:36:46.795Z,7.12
2019-04-20T23:39:13.097Z,7.75
2019-04-20T23:41:49.913Z,7.72
2019-04-20T23:44:19.224Z,7.42
2019-04-20T23:47:03.187Z,7.55
2019-04-20T23:49:31.825Z,7.60
2019-04-20T23:52:16.902Z,6.40
2019-04-20T23:54:31.859Z,7.80
2019-04-20T23:56:59.675Z,7.22
2019-04-20T23:59:35.796Z,7.80
